»·PEaware :: N2442P KBFL-KMHV

N2442P :: KBFL-KMHV

FLIGHT INFORMATION

Flight Status: Arrived
Operator: Privately registered:
United States
More flights under this callsign
Pilot: Ken Q. (14290)
Aircraft: MOONEY M-20K/M ENCORE BRAVO
(M20T)
More flights by this aircraft type
Origin: KBFL Meadows
United States
Destination: KMHV Mojave
United States
More flights between these airports :: More routes between these airports
Route: +KBFL KMHV
File this flight plan on PilotEdge
Remarks:
Altitude:
(Current/Filed)
7,500ft
Speed:
(Current/Filed)
175kts
Departed: 04-Dec-18 09:23 AM
Arrived: 04-Dec-18 09:48 AM
Distance/Time
Traveled:
1nm/0:24
Distance/Time
To Go:
Arrived

Flight Plot

Page will automatically refresh every two minutes.


Map Options




Map Legend


Flown Route
Filed Route
Departure Airport
Arrival Airport
Navaid (VOR, NDB)
Fix

Horizontal Profiles

Position Reports

Time Latitude Longitude Heading Altitude Ground
Speed
04-Dec-18 08:51 35.429800 -119.046869 135 510ft 0kts
04-Dec-18 08:52 35.429800 -119.046869 135 510ft 0kts
04-Dec-18 08:53 35.429800 -119.046869 135 510ft 0kts
04-Dec-18 08:54 35.429800 -119.046869 135 510ft 0kts
04-Dec-18 08:55 35.429800 -119.046869 135 510ft 0kts
04-Dec-18 08:56 35.429800 -119.046869 135 510ft 0kts
04-Dec-18 08:57 35.429800 -119.046869 135 510ft 0kts
04-Dec-18 08:58 35.429800 -119.046869 135 510ft 0kts
04-Dec-18 08:59 35.429800 -119.046869 135 510ft 0kts
04-Dec-18 09:00 35.429800 -119.046869 135 510ft 0kts
04-Dec-18 09:01 35.429800 -119.046869 135 510ft 0kts
04-Dec-18 09:02 35.429800 -119.046869 135 510ft 0kts
04-Dec-18 09:03 35.429800 -119.046869 135 510ft 0kts
04-Dec-18 09:04 35.429800 -119.046869 135 510ft 0kts
04-Dec-18 09:05 35.429800 -119.046869 135 510ft 0kts
04-Dec-18 09:06 35.429800 -119.046869 135 510ft 0kts
04-Dec-18 09:07 35.429800 -119.046869 135 510ft 0kts
04-Dec-18 09:08 35.429800 -119.046869 135 510ft 0kts
04-Dec-18 09:08 35.429800 -119.046869 135 510ft 0kts
04-Dec-18 09:10 35.429800 -119.046869 135 510ft 0kts
04-Dec-18 09:11 35.429557 -119.047457 248 510ft 2kts
04-Dec-18 09:11 35.429414 -119.048577 313 510ft 8kts
04-Dec-18 09:13 35.431525 -119.051176 316 510ft 9kts
04-Dec-18 09:13 35.433208 -119.053180 315 510ft 10kts
04-Dec-18 09:15 35.435673 -119.056136 322 510ft 12kts
04-Dec-18 09:15 35.437943 -119.058906 316 510ft 15kts
04-Dec-18 09:17 35.441658 -119.063362 311 510ft 16kts
04-Dec-18 09:17 35.444125 -119.066332 319 510ft 12kts
04-Dec-18 09:18 35.446956 -119.069787 312 510ft 16kts
04-Dec-18 09:19 35.446853 -119.070442 226 510ft 0kts
04-Dec-18 09:20 35.446851 -119.070445 226 510ft 0kts
04-Dec-18 09:21 35.445883 -119.070877 122 510ft 14kts
04-Dec-18 09:22 35.432269 -119.056255 137 907ft 99kts
04-Dec-18 09:23 35.412626 -119.026623 118 1636ft 124kts
04-Dec-18 09:24 35.401346 -118.985391 107 2298ft 127kts
04-Dec-18 09:25 35.392697 -118.942725 105 2952ft 130kts
04-Dec-18 09:26 35.384016 -118.898814 105 3620ft 134kts
04-Dec-18 09:27 35.374907 -118.853557 105 4286ft 138kts
04-Dec-18 09:28 35.365654 -118.807612 105 4944ft 138kts
04-Dec-18 09:29 35.356315 -118.761514 105 5604ft 139kts
04-Dec-18 09:30 35.346863 -118.715324 105 6261ft 139kts
04-Dec-18 09:31 35.337501 -118.668991 105 6919ft 140kts
04-Dec-18 09:32 35.328245 -118.622317 105 7538ft 145kts
04-Dec-18 09:33 35.298384 -118.586966 148 7889ft 153kts
04-Dec-18 09:34 35.259060 -118.557213 148 7807ft 174kts
04-Dec-18 09:35 35.217653 -118.525996 148 7472ft 176kts
04-Dec-18 09:36 35.176627 -118.491867 141 6943ft 180kts
04-Dec-18 09:37 35.141808 -118.448037 126 6346ft 179kts
04-Dec-18 09:38 35.123228 -118.392193 107 5752ft 178kts
04-Dec-18 09:39 35.109732 -118.337526 107 5855ft 153kts
04-Dec-18 09:40 35.097701 -118.288219 107 5889ft 165kts
04-Dec-18 09:41 35.084453 -118.233397 106 5456ft 155kts
04-Dec-18 09:42 35.079189 -118.185720 42 4971ft 140kts
04-Dec-18 09:43 35.094583 -118.209710 232 4322ft 136kts
04-Dec-18 09:44 35.064676 -118.208069 137 3723ft 107kts
04-Dec-18 09:45 35.058372 -118.184223 71 3268ft 70kts
04-Dec-18 09:46 35.059265 -118.160645 85 2794ft 59kts
04-Dec-18 09:47 35.059193 -118.151178 90 2794ft 23kts
04-Dec-18 09:48 35.058493 -118.149942 223 2794ft 2kts
04-Dec-18 09:49 35.057564 -118.149521 270 2794ft 9kts
04-Dec-18 09:50 35.057564 -118.154198 269 2794ft 7kts
04-Dec-18 09:51 35.057138 -118.156241 180 2794ft 4kts
04-Dec-18 09:52 35.057001 -118.156107 11 2794ft 0kts
04-Dec-18 09:53 35.057001 -118.156107 11 2794ft 0kts
04-Dec-18 09:54 35.057001 -118.156107 11 2794ft 0kts
04-Dec-18 09:55 35.429800 -119.046869 135 510ft 0kts
04-Dec-18 09:56 35.429800 -119.046869 135 510ft 0kts
04-Dec-18 09:57 35.429800 -119.046869 135 510ft 0kts
04-Dec-18 09:58 35.429800 -119.046869 135 510ft 0kts
04-Dec-18 09:59 35.429800 -119.046869 135 510ft 0kts

Navigation Log

Ident Type
Flight plan parsing failed, navigation log unavailable